Station: Thredbo Top Station

  Atmospheric Gas Attenuation - ITU Rec 676-11   --------------- db/100km ---------------
Date Time Temp RH % AH g/m3 Dew Point Wind Direction Speed kph Gust kph Barometer mB Rainfall Since 9am 24GHz 47GHz 76GHz 122GHz 134GHz 241GHz
23 08:50 -1.3 100 4.43 -1.3 1029.8 0 11.2 23.8 30.0 77.9 58.4 196.0
23 08:40 -1.3 100 4.43 -1.3 1029.7 0 11.2 23.8 30.0 77.9 58.4 195.9
23 08:30 -1.3 100 4.43 -1.3 1029.7 0 11.2 23.8 30.0 77.9 58.4 195.9
23 08:20 -1.4 100 4.4 -1.4 1029.6 0 11.2 23.8 29.9 77.7 58.1 194.7
23 08:10 -1.3 100 4.43 -1.3 1029.5 0 11.2 23.8 30.0 77.9 58.4 195.9
23 08:00 -1.2 100 4.46 -1.2 1029.2 0 11.3 23.8 30.1 78.1 58.7 197.1
23 07:50 -1.2 100 4.46 -1.2 1029.3 0 11.3 23.9 30.1 78.1 58.7 197.1
23 07:40 -1.2 100 4.46 -1.2 1029.2 0 11.3 23.8 30.1 78.1 58.7 197.1
23 07:30 -1.3 100 4.43 -1.3 1028.9 0 11.2 23.8 30.0 77.9 58.4 195.8
23 07:20 -1.2 100 4.46 -1.2 1029 0 11.3 23.8 30.1 78.1 58.7 197.0
23 07:10 -1.1 100 4.5 -1.1 1029 0 11.4 23.9 30.2 78.4 59.2 198.7
23 07:00 -1.1 100 4.5 -1.1 1028.7 0 11.4 23.9 30.2 78.4 59.2 198.7
23 06:50 -1 100 4.53 -1 1029 0 11.4 23.9 30.3 78.7 59.5 199.9
23 06:40 -1 100 4.53 -1 1028.8 0 11.4 23.9 30.3 78.7 59.5 199.9
23 06:30 -0.9 100 4.56 -0.9 1028.5 0 11.5 23.9 30.4 78.9 59.9 201.0
23 06:20 -0.9 100 4.56 -0.9 1028.7 0 11.5 23.9 30.4 78.9 59.9 201.1
23 06:10 -0.9 100 4.56 -0.9 1028.6 0 11.5 23.9 30.4 78.9 59.9 201.1
23 06:00 -0.9 100 4.56 -0.9 1028.4 0 11.5 23.9 30.4 78.9 59.9 201.0
23 05:50 -0.9 100 4.56 -0.9 1028.3 0 11.5 23.9 30.4 78.9 59.8 201.0
23 05:40 -0.9 100 4.56 -0.9 1028.2 0 11.5 23.9 30.4 78.8 59.8 201.0
23 05:30 -0.8 100 4.59 -0.8 1028.1 0 11.6 23.9 30.4 79.1 60.2 202.2
23 05:20 -0.8 100 4.59 -0.8 1028.1 0 11.6 23.9 30.4 79.1 60.2 202.2
23 05:10 -0.8 100 4.59 -0.8 1028.1 0 11.6 23.9 30.4 79.1 60.2 202.2
23 05:00 -0.8 100 4.59 -0.8 1027.9 0 11.6 23.9 30.4 79.1 60.2 202.1
23 04:50 -0.9 100 4.56 -0.9 1028.3 0 11.5 23.9 30.4 78.9 59.8 201.0
23 04:40 -1 100 4.53 -1 1028.1 0 11.4 23.9 30.3 78.6 59.5 199.8
23 04:30 -1 100 4.53 -1 1028.3 0 11.4 23.9 30.3 78.6 59.5 199.8
23 04:20 -1 100 4.53 -1 1028.4 0 11.4 23.9 30.3 78.6 59.5 199.8
23 04:10 -1 100 4.53 -1 1028.4 0 11.4 23.9 30.3 78.6 59.5 199.8
23 04:00 -1 100 4.53 -1 1028.4 0 11.4 23.9 30.3 78.6 59.5 199.8
23 03:50 -0.9 100 4.56 -0.9 1028.6 0 11.5 23.9 30.4 78.9 59.9 201.1
23 03:40 -0.9 100 4.56 -0.9 1028.7 0 11.5 23.9 30.4 78.9 59.9 201.1
23 03:30 -1 100 4.53 -1 1028.5 0 11.4 23.9 30.3 78.6 59.5 199.8
23 03:20 -1 100 4.53 -1 1028.7 0 11.4 23.9 30.3 78.7 59.5 199.9
23 03:10 -1.1 100 4.5 -1.1 1028.8 0 11.4 23.9 30.2 78.4 59.2 198.7
23 03:00 -1 100 4.53 -1 1028.8 0 11.4 23.9 30.3 78.7 59.5 199.9
23 02:50 -1 100 4.53 -1 1028.8 0 11.4 23.9 30.3 78.7 59.5 199.9
23 02:40 -1 100 4.53 -1 1029.2 0 11.4 23.9 30.3 78.7 59.6 200.0
23 02:30 -0.9 100 4.56 -0.9 1029.2 0 11.5 23.9 30.4 78.9 59.9 201.2
23 02:20 -0.9 100 4.56 -0.9 1029.3 0 11.5 23.9 30.4 78.9 59.9 201.2
23 02:10 -1 100 4.53 -1 1029.5 0 11.4 23.9 30.3 78.7 59.6 200.0
23 02:00 -1 100 4.53 -1 1029.5 0 11.4 23.9 30.3 78.7 59.6 200.0
23 01:50 -1 100 4.53 -1 1029.6 0 11.4 23.9 30.3 78.7 59.6 200.0
23 01:40 -1.1 100 4.5 -1.1 1029.6 0 11.4 23.9 30.2 78.5 59.2 198.8
23 01:30 -1.1 100 4.5 -1.1 1029.5 0 11.4 23.9 30.2 78.5 59.2 198.8
23 01:20 -1.1 100 4.5 -1.1 1029.5 0 11.4 23.9 30.2 78.5 59.2 198.8
23 01:10 -1.1 100 4.5 -1.1 1029.6 0 11.4 23.9 30.2 78.5 59.2 198.8
23 01:00 -1 100 4.53 -1 1029.6 0 11.4 23.9 30.3 78.7 59.6 200.0
23 00:50 -1.1 100 4.5 -1.1 1029.7 0 11.4 23.9 30.2 78.5 59.2 198.8
23 00:40 -1 100 4.53 -1 1029.5 0 11.4 23.9 30.3 78.7 59.6 200.0
23 00:30 -1.1 100 4.5 -1.1 1029.6 0 11.4 23.9 30.2 78.5 59.2 198.8
23 00:20 -1 100 4.53 -1 1029.6 0 11.4 23.9 30.3 78.7 59.6 200.0
23 00:10 -0.9 100 4.56 -0.9 1030 0 11.5 24.0 30.4 79.0 59.9 201.3
23 00:00 -0.9 100 4.56 -0.9 1029.8 0 11.5 24.0 30.4 79.0 59.9 201.3
22 23:50 -0.9 100 4.56 -0.9 1030 0 11.5 24.0 30.4 79.0 59.9 201.3
22 23:40 -0.9 100 4.56 -0.9 1029.8 0 11.5 24.0 30.4 79.0 59.9 201.3
22 23:30 -0.9 100 4.56 -0.9 1030 0 11.5 24.0 30.4 79.0 59.9 201.3
22 23:20 -1 100 4.53 -1 1029.7 0 11.4 23.9 30.3 78.7 59.6 200.1
22 23:10 -1 100 4.53 -1 1029.7 0 11.4 23.9 30.3 78.7 59.6 200.1
22 23:00 -0.9 100 4.56 -0.9 1029.7 0 11.5 24.0 30.4 79.0 59.9 201.3
22 22:50 -1 100 4.53 -1 1029.8 0 11.4 23.9 30.3 78.8 59.6 200.1
22 22:40 -1.1 100 4.5 -1.1 1029.7 0 11.4 23.9 30.2 78.5 59.2 198.8
22 22:30 -1.1 100 4.5 -1.1 1029.4 0 11.4 23.9 30.2 78.5 59.2 198.8
22 22:20 -1.1 100 4.5 -1.1 1029.6 0 11.4 23.9 30.2 78.5 59.2 198.8
22 22:10 -1.1 100 4.5 -1.1 1029.6 0 11.4 23.9 30.2 78.5 59.2 198.8
22 22:00 -1.1 100 4.5 -1.1 1029.6 0 11.4 23.9 30.2 78.5 59.2 198.8
22 21:50 -1.2 100 4.46 -1.2 1029.3 0 11.3 23.9 30.1 78.1 58.7 197.1
22 21:40 -1.3 100 4.43 -1.3 1029.2 0 11.2 23.8 30.0 77.9 58.4 195.9
22 21:30 -1.4 100 4.4 -1.4 1029.1 0 11.2 23.8 29.9 77.6 58.1 194.6
22 21:20 -1.5 100 4.37 -1.5 1029.2 0 11.1 23.8 29.8 77.4 57.7 193.4
22 21:10 -1.6 100 4.34 -1.6 1029 0 11.0 23.7 29.7 77.2 57.4 192.2
22 21:00 -1.6 100 4.34 -1.6 1028.7 0 11.0 23.7 29.7 77.1 57.4 192.1
22 20:50 -1.6 100 4.34 -1.6 1028.8 0 11.0 23.7 29.7 77.1 57.4 192.2
22 20:40 -1.5 100 4.37 -1.5 1028.8 0 11.1 23.8 29.8 77.4 57.7 193.4
22 20:30 -1.5 100 4.37 -1.5 1028.6 0 11.1 23.8 29.8 77.4 57.7 193.3
22 20:20 -1.4 100 4.4 -1.4 1028.4 0 11.2 23.8 29.9 77.6 58.0 194.5
22 20:10 -1.4 100 4.4 -1.4 1028.3 0 11.2 23.8 29.9 77.6 58.0 194.5
22 20:00 -1.4 100 4.4 -1.4 1028.4 0 11.2 23.8 29.9 77.6 58.0 194.5
22 19:50 -1.2 100 4.46 -1.2 1028.2 0 11.3 23.8 30.1 78.0 58.7 196.9
22 19:40 -1.1 100 4.5 -1.1 1028.3 0 11.4 23.9 30.2 78.4 59.2 198.6
22 19:30 -1 100 4.53 -1 1028.4 0 11.4 23.9 30.3 78.6 59.5 199.8
22 19:20 -0.9 100 4.56 -0.9 1028.3 0 11.5 23.9 30.4 78.9 59.8 201.0
22 19:10 -0.7 100 4.62 -0.7 1028.3 0 11.6 23.9 30.5 79.3 60.5 203.4
22 19:00 -0.6 100 4.65 -0.6 1027.9 0 11.7 24.0 30.6 79.5 60.8 204.5
22 18:50 -0.5 100 4.69 -0.5 1027.8 0 11.8 24.0 30.7 79.9 61.3 206.2
22 18:40 -0.4 100 4.72 -0.4 1027.7 0 11.8 24.0 30.8 80.1 61.6 207.4
22 18:30 -0.2 100 4.79 -0.2 1027.4 0 12.0 24.1 31.0 80.6 62.4 210.2
22 18:20 -0.2 100 4.79 -0.2 1027.6 0 12.0 24.1 31.0 80.6 62.4 210.2
22 18:10 -0.1 100 4.82 -0.1 1027.4 0 12.0 24.1 31.1 80.9 62.8 211.4
22 18:00 -0.1 100 4.82 -0.1 1027.1 0 12.0 24.1 31.1 80.8 62.7 211.3
22 17:50 -0.1 100 4.82 -0.1 1027.2 0 12.0 24.1 31.1 80.8 62.7 211.3
22 17:40 -0.2 100 4.79 -0.2 1027.2 0 12.0 24.1 31.0 80.6 62.4 210.1
22 17:30 -0.3 100 4.75 -0.3 1026.9 0 11.9 24.0 30.9 80.2 61.9 208.4
22 17:20 -0.2 100 4.79 -0.2 1027 0 12.0 24.0 31.0 80.6 62.4 210.1
22 17:10 -0.2 100 4.79 -0.2 1027 0 12.0 24.0 31.0 80.6 62.4 210.1
22 17:00 -0.1 100 4.82 -0.1 1026.8 0 12.0 24.1 31.1 80.8 62.7 211.3
22 16:50 -0.1 100 4.82 -0.1 1026.8 0 12.0 24.1 31.1 80.8 62.7 211.3
22 16:40 -0.1 100 4.82 -0.1 1026.8 0 12.0 24.1 31.1 80.8 62.7 211.3
22 16:30 -0.2 100 4.79 -0.2 1026.5 0 12.0 24.0 31.0 80.5 62.4 210.0
22 16:20 -0.2 100 4.79 -0.2 1026.5 0 12.0 24.0 31.0 80.5 62.4 210.0

Last Refresh: 23-Jul-2024 08:31:16

Bureau of Meteorology